ěÝzenÝ letovÚho provozu ╚eskÚ republiky
Letiste: LKMT Aktualizace: 21.10.2021 12:30:29  UTC
 METAR LKMT 21.10. 12:30 ...
METAR LKMT 211230Z 21021KT CAVOK 16/08 Q1003 NOSIG RMK REG QNH 0999=
 TAF LKMT 21.10. 11:00 ...
TAF LKMT 211100Z 2112/2218 22016KT CAVOK      TEMPO 2112/2218 24017G35KT      PROB30 TEMPO 2112/2117 24020G45KT 9999 -SHRA BKN035      TEMPO 2201/2205 9999 BKN035=